Time;durP1;ratioP1;P1;durP2;ratioP2;P2;SDS_P1;SDS_P2;PMS_P1;PMS_P2;Temp;Humidity;BMP_temperature;BMP_pressure;BME280_temperature;BME280_humidity;BME280_pressure;Samples;Min_cycle;Max_cycle;Signal;HPM_P1;HPM_P2
2023/10/07 00:02:55;;;;;;;1.00;0.70;;;15.40;99.90;;;;;;5028072;28;20029;-78
2023/10/07 00:05:31;;;;;;;0.10;0.10;;;15.50;99.90;;;;;;5011588;28;20026;-75
2023/10/07 00:08:00;;;;;;;1.13;0.85;;;15.50;99.90;;;;;;5012392;28;20486;-76
2023/10/07 00:10:36;;;;;;;2.08;1.20;;;15.40;99.90;;;;;;5012731;28;20421;-76
2023/10/07 00:13:09;;;;;;;4.22;1.38;;;15.50;99.90;;;;;;5012702;28;20065;-75
2023/10/07 00:15:36;;;;;;;0.10;0.10;;;15.50;99.90;;;;;;5011501;28;20037;-75
2023/10/07 00:18:12;;;;;;;0.30;0.30;;;15.60;99.90;;;;;;5012699;28;20057;-75
2023/10/07 00:20:44;;;;;;;0.00;0.00;;;15.60;99.90;;;;;;5011551;28;20030;-75
2023/10/07 00:23:12;;;;;;;6.60;1.88;;;15.60;99.90;;;;;;5012219;28;20029;-76
2023/10/07 00:25:38;;;;;;;0.73;0.73;;;15.50;99.90;;;;;;5012612;28;20080;-76
2023/10/07 00:28:17;;;;;;;3.85;1.58;;;15.50;99.90;;;;;;5012808;28;20030;-76
2023/10/07 00:30:45;;;;;;;2.00;0.75;;;15.50;99.90;;;;;;5012471;28;20136;-76
2023/10/07 00:33:13;;;;;;;2.47;1.73;;;15.60;99.90;;;;;;5012782;28;20117;-76
2023/10/07 00:35:39;;;;;;;0.15;0.15;;;15.40;99.90;;;;;;5012612;28;20053;-76
2023/10/07 00:38:05;;;;;;;6.25;1.40;;;15.40;99.90;;;;;;5011054;28;20038;-76
2023/10/07 00:40:41;;;;;;;4.20;1.90;;;15.40;99.90;;;;;;5012579;28;20474;-76
2023/10/07 00:43:10;;;;;;;0.95;0.52;;;15.50;99.90;;;;;;5011156;28;20091;-76
2023/10/07 00:45:35;;;;;;;0.25;0.20;;;15.60;99.90;;;;;;5011053;28;20026;-78
2023/10/07 00:48:05;;;;;;;0.70;0.70;;;15.70;99.90;;;;;;5012550;28;20026;-78
2023/10/07 00:50:34;;;;;;;1.88;1.30;;;15.70;99.90;;;;;;5027479;28;20026;-76
2023/10/07 00:53:05;;;;;;;1.13;0.77;;;15.60;99.90;;;;;;5012174;28;20021;-78
2023/10/07 00:55:35;;;;;;;2.95;1.00;;;15.70;99.90;;;;;;5014601;28;20026;-75
2023/10/07 00:58:19;;;;;;;1.48;1.10;;;15.80;99.90;;;;;;5035731;28;20025;-76
2023/10/07 01:00:47;;;;;;;0.32;0.32;;;15.80;99.90;;;;;;5034250;28;20025;-76
2023/10/07 01:13:50;;;;;;;8.88;4.53;;;15.80;99.90;;;;;;5030024;28;20159;-76
2023/10/07 01:16:43;;;;;;;0.77;0.77;;;15.90;99.90;;;;;;5034339;28;20029;-76
2023/10/07 01:21:55;;;;;;;1.08;1.02;;;16.00;99.90;;;;;;5034280;28;20052;-76
2023/10/07 01:32:48;;;;;;;0.00;0.00;;;15.80;99.90;;;;;;5034975;28;20049;-76
2023/10/07 01:35:24;;;;;;;0.57;0.57;;;15.90;99.90;;;;;;5033547;28;20493;-78
2023/10/07 01:38:06;;;;;;;2.75;1.25;;;16.00;99.90;;;;;;5033970;28;20029;-76
2023/10/07 01:43:17;;;;;;;25.42;3.92;;;16.00;99.90;;;;;;5033642;28;20544;-76
2023/10/07 01:45:43;;;;;;;1.88;0.70;;;16.00;99.90;;;;;;5033406;28;20037;-76
2023/10/07 01:48:10;;;;;;;0.10;0.10;;;16.00;99.90;;;;;;5033513;28;20112;-76
2023/10/07 01:50:47;;;;;;;0.10;0.05;;;16.00;99.90;;;;;;5033217;28;20025;-76
2023/10/07 01:53:14;;;;;;;0.00;0.00;;;16.20;99.90;;;;;;5033504;28;20535;-76
2023/10/07 01:55:43;;;;;;;4.53;2.95;;;16.20;99.90;;;;;;5034617;28;20148;-76
2023/10/07 01:58:19;;;;;;;0.45;0.25;;;16.00;99.90;;;;;;5033398;28;20021;-76
2023/10/07 02:00:51;;;;;;;4.90;1.35;;;16.10;99.90;;;;;;5033301;28;20029;-76
2023/10/07 02:03:21;;;;;;;0.30;0.30;;;16.10;99.90;;;;;;5034579;28;20029;-76
2023/10/07 02:05:48;;;;;;;1.45;1.13;;;16.20;99.90;;;;;;5033776;28;20026;-76
2023/10/07 02:08:18;;;;;;;5.95;1.90;;;16.20;99.90;;;;;;5034002;28;20071;-76
2023/10/07 02:10:47;;;;;;;1.60;1.02;;;16.10;99.90;;;;;;5033262;28;20033;-76
2023/10/07 02:13:14;;;;;;;0.00;0.00;;;16.10;99.90;;;;;;5034735;28;20386;-76
2023/10/07 02:15:43;;;;;;;1.55;0.85;;;16.30;99.90;;;;;;5032886;28;20028;-76
2023/10/07 02:18:16;;;;;;;4.43;2.13;;;16.30;99.90;;;;;;5032860;28;20044;-76
2023/10/07 02:20:49;;;;;;;4.93;1.98;;;16.20;99.90;;;;;;5032710;28;20484;-76
2023/10/07 02:23:37;;;;;;;5.40;2.53;;;16.20;99.90;;;;;;5032897;28;20030;-76
2023/10/07 02:26:07;;;;;;;8.77;2.33;;;16.10;99.90;;;;;;5034114;28;20029;-76
2023/10/07 02:28:34;;;;;;;10.77;2.08;;;16.10;99.90;;;;;;5032805;28;20025;-76
2023/10/07 02:31:07;;;;;;;0.00;0.00;;;16.10;99.90;;;;;;5033684;28;20029;-76
2023/10/07 02:33:43;;;;;;;2.20;1.65;;;16.00;99.90;;;;;;5033847;28;20359;-76
2023/10/07 02:36:36;;;;;;;2.28;1.35;;;16.10;99.90;;;;;;5033763;28;20083;-76
2023/10/07 02:39:04;;;;;;;0.52;0.52;;;16.20;99.90;;;;;;5033261;28;20053;-76
2023/10/07 02:41:31;;;;;;;1.13;1.00;;;16.20;99.90;;;;;;5033745;28;20029;-77
2023/10/07 02:44:05;;;;;;;5.60;2.00;;;16.20;99.90;;;;;;5033955;28;20033;-76
2023/10/07 02:49:03;;;;;;;0.30;0.30;;;16.20;99.90;;;;;;5033682;28;20033;-75
2023/10/07 02:51:29;;;;;;;5.72;1.50;;;16.30;99.90;;;;;;5033344;28;20531;-76
2023/10/07 02:54:04;;;;;;;7.55;3.08;;;16.20;99.90;;;;;;5032399;28;20017;-76
2023/10/07 02:56:43;;;;;;;3.60;2.05;;;16.30;99.90;;;;;;5022018;28;20033;-78
2023/10/07 02:59:25;;;;;;;1.33;1.20;;;16.30;99.90;;;;;;5033605;28;20037;-76
2023/10/07 03:04:36;;;;;;;2.75;1.08;;;16.40;99.90;;;;;;5032151;28;20034;-76
2023/10/07 03:07:13;;;;;;;0.63;0.57;;;16.40;99.90;;;;;;5033059;28;20029;-77
2023/10/07 03:09:54;;;;;;;0.47;0.47;;;16.50;99.90;;;;;;5032469;28;20041;-76
2023/10/07 03:12:30;;;;;;;3.42;1.35;;;16.40;99.90;;;;;;5019304;28;20037;-76
2023/10/07 03:14:59;;;;;;;3.40;1.52;;;16.40;99.90;;;;;;5032075;28;20040;-76
2023/10/07 03:17:35;;;;;;;2.85;2.58;;;16.40;99.90;;;;;;5031083;28;20029;-76
2023/10/07 03:23:10;;;;;;;0.47;0.47;;;16.30;99.90;;;;;;5007902;28;20364;-76
2023/10/07 03:25:49;;;;;;;1.65;1.55;;;16.40;99.90;;;;;;5032705;28;20068;-76
2023/10/07 03:28:16;;;;;;;6.95;1.42;;;16.50;99.90;;;;;;5033267;28;20049;-76
2023/10/07 03:30:47;;;;;;;1.58;0.90;;;16.30;99.90;;;;;;5032240;28;20087;-76
2023/10/07 03:33:15;;;;;;;0.82;0.82;;;16.40;99.90;;;;;;5033166;28;20036;-76
2023/10/07 03:38:25;;;;;;;4.28;2.85;;;16.50;99.90;;;;;;5032871;28;20474;-76
2023/10/07 03:40:54;;;;;;;0.08;0.08;;;16.40;99.90;;;;;;5031276;28;20037;-76
2023/10/07 03:43:27;;;;;;;2.95;0.75;;;16.40;99.90;;;;;;5031849;28;20112;-76
2023/10/07 03:45:54;;;;;;;14.80;5.80;;;16.60;99.90;;;;;;5032239;28;20041;-76
2023/10/07 03:48:31;;;;;;;8.02;2.63;;;16.30;99.90;;;;;;5031641;28;20025;-77
2023/10/07 03:51:05;;;;;;;0.77;0.63;;;16.30;99.90;;;;;;5032271;28;20120;-76
2023/10/07 03:53:46;;;;;;;0.03;0.03;;;16.40;99.90;;;;;;5032944;28;20029;-76
2023/10/07 03:56:16;;;;;;;13.07;3.58;;;16.60;99.90;;;;;;5032495;28;20029;-76
2023/10/07 03:58:43;;;;;;;0.40;0.40;;;16.50;99.90;;;;;;5032658;28;20065;-76
2023/10/07 04:01:16;;;;;;;3.83;3.05;;;16.50;99.90;;;;;;5032079;28;20033;-76
2023/10/07 04:03:47;;;;;;;7.72;2.63;;;16.50;99.90;;;;;;5031437;28;20485;-76
2023/10/07 04:06:20;;;;;;;0.52;0.52;;;16.40;99.90;;;;;;5032270;28;20460;-76
2023/10/07 04:08:56;;;;;;;4.97;1.88;;;16.40;99.90;;;;;;5032549;28;20025;-76
2023/10/07 04:11:26;;;;;;;8.07;1.95;;;16.40;99.90;;;;;;5030000;28;20038;-76
2023/10/07 04:13:56;;;;;;;6.93;2.67;;;16.40;99.90;;;;;;5030099;28;20104;-76
2023/10/07 04:16:27;;;;;;;0.00;0.00;;;16.40;99.90;;;;;;5032292;28;20416;-76
2023/10/07 04:19:09;;;;;;;;;;;16.50;99.90;;;;;;5031377;28;20061;-75
2023/10/07 04:21:44;;;;;;;0.52;0.52;;;16.50;99.90;;;;;;5032251;28;20389;-77
2023/10/07 04:24:11;;;;;;;2.15;0.90;;;16.50;99.90;;;;;;5032344;28;20033;-76
2023/10/07 04:26:39;;;;;;;0.50;0.50;;;16.40;99.90;;;;;;5032274;28;20489;-76
2023/10/07 04:29:14;;;;;;;10.25;3.78;;;16.40;99.90;;;;;;5032074;28;20033;-76
2023/10/07 04:31:45;;;;;;;1.85;1.05;;;16.50;99.90;;;;;;5035979;28;20401;-76
2023/10/07 04:34:15;;;;;;;0.52;0.43;;;16.40;99.90;;;;;;5036100;28;20028;-76
2023/10/07 04:39:37;;;;;;;0.50;0.40;;;16.50;99.90;;;;;;5036007;28;20113;-75
2023/10/07 04:42:05;;;;;;;0.00;0.00;;;16.50;99.90;;;;;;5035790;28;20044;-76
2023/10/07 04:50:15;;;;;;;8.23;2.38;;;16.50;99.90;;;;;;5036041;28;20033;-76
2023/10/07 04:52:42;;;;;;;1.55;1.20;;;16.50;99.90;;;;;;5035569;28;20124;-76
2023/10/07 04:55:13;;;;;;;13.60;0.82;;;16.40;99.90;;;;;;5036180;28;20030;-76
2023/10/07 05:02:59;;;;;;;0.38;0.38;;;16.40;99.90;;;;;;5012840;28;20034;-76
2023/10/07 05:05:29;;;;;;;2.83;0.52;;;16.40;99.90;;;;;;5032486;28;20034;-76
2023/10/07 05:08:08;;;;;;;2.58;0.73;;;16.40;99.90;;;;;;5035491;28;20030;-76
2023/10/07 05:10:41;;;;;;;2.42;1.67;;;16.60;99.90;;;;;;5035364;28;20036;-76
2023/10/07 05:13:08;;;;;;;0.00;0.00;;;16.40;99.90;;;;;;5035649;28;20478;-76
2023/10/07 05:15:40;;;;;;;0.52;0.52;;;16.40;99.90;;;;;;5035405;28;20029;-76
2023/10/07 05:18:06;;;;;;;1.20;1.05;;;16.30;99.90;;;;;;5035433;28;20460;-76
2023/10/07 05:20:33;;;;;;;1.83;1.52;;;16.40;99.90;;;;;;5035306;28;20096;-76
2023/10/07 05:23:02;;;;;;;1.90;0.65;;;16.40;99.90;;;;;;5034068;28;20029;-77
2023/10/07 05:25:32;;;;;;;4.10;2.03;;;16.40;99.90;;;;;;5034128;28;20112;-76
2023/10/07 05:27:57;;;;;;;0.77;0.75;;;16.40;99.90;;;;;;5033608;28;20057;-76
2023/10/07 05:30:23;;;;;;;1.27;0.55;;;16.40;99.90;;;;;;5035158;28;20414;-76
2023/10/07 05:32:49;;;;;;;14.82;1.77;;;16.40;99.90;;;;;;5007389;28;20075;-76
2023/10/07 05:35:19;;;;;;;0.28;0.28;;;16.40;99.90;;;;;;5034932;28;20462;-76
2023/10/07 05:37:46;;;;;;;0.20;0.20;;;16.40;99.90;;;;;;5034939;28;20030;-75
2023/10/07 05:40:15;;;;;;;0.20;0.20;;;16.50;99.90;;;;;;5034791;28;20030;-76
2023/10/07 05:42:42;;;;;;;6.88;1.90;;;16.40;99.90;;;;;;5034621;28;20033;-77
2023/10/07 05:45:09;;;;;;;2.95;2.08;;;16.40;99.90;;;;;;5034988;28;20052;-76
2023/10/07 05:47:35;;;;;;;7.70;2.30;;;16.50;99.90;;;;;;5034843;28;20026;-76
2023/10/07 05:50:01;;;;;;;0.88;0.85;;;16.40;99.90;;;;;;5034849;28;20033;-76
2023/10/07 05:52:31;;;;;;;3.90;2.33;;;16.40;99.90;;;;;;5034776;28;20049;-76
2023/10/07 05:54:57;;;;;;;0.57;0.57;;;16.40;99.90;;;;;;5034753;28;20025;-76
2023/10/07 05:57:26;;;;;;;20.05;2.75;;;16.50;99.90;;;;;;5034493;28;20026;-76
2023/10/07 05:59:52;;;;;;;0.00;0.00;;;16.50;99.90;;;;;;5034569;28;20013;-76
2023/10/07 06:02:18;;;;;;;4.38;2.15;;;16.50;99.90;;;;;;5034597;28;20156;-75
2023/10/07 06:04:44;;;;;;;1.38;1.27;;;16.40;99.90;;;;;;5034218;28;20021;-78
2023/10/07 06:07:20;;;;;;;1.50;0.80;;;16.40;99.90;;;;;;5034326;28;20021;-76
2023/10/07 06:09:47;;;;;;;0.80;0.63;;;16.40;99.90;;;;;;5034119;28;20044;-77
2023/10/07 06:12:15;;;;;;;4.57;1.23;;;16.50;99.90;;;;;;5034038;28;20073;-77
2023/10/07 06:14:42;;;;;;;8.30;2.03;;;16.50;99.90;;;;;;5034191;28;20095;-77
2023/10/07 06:17:11;;;;;;;2.25;1.55;;;16.50;99.90;;;;;;5033026;28;20029;-77
2023/10/07 06:19:38;;;;;;;0.75;0.73;;;16.50;99.90;;;;;;5034476;28;20144;-77
2023/10/07 06:22:15;;;;;;;1.00;0.63;;;16.50;99.90;;;;;;5034043;28;20378;-77
2023/10/07 06:24:41;;;;;;;4.43;0.40;;;16.50;99.90;;;;;;5033781;28;20084;-77
2023/10/07 06:27:11;;;;;;;0.75;0.52;;;16.50;99.90;;;;;;5032650;28;20033;-77
2023/10/07 06:29:43;;;;;;;0.30;0.30;;;16.50;99.90;;;;;;5034139;28;20034;-77
2023/10/07 06:32:22;;;;;;;0.00;0.00;;;16.50;99.90;;;;;;5032490;28;20732;-77
2023/10/07 06:34:51;;;;;;;1.70;1.23;;;16.80;99.90;;;;;;5033862;28;20385;-77
2023/10/07 06:37:29;;;;;;;1.02;0.63;;;16.70;99.90;;;;;;5033812;28;20029;-77
2023/10/07 06:39:58;;;;;;;0.77;0.20;;;16.60;99.90;;;;;;5033621;28;20039;-77
2023/10/07 06:42:24;;;;;;;7.32;2.17;;;16.70;99.90;;;;;;5033733;28;20386;-78
2023/10/07 06:44:55;;;;;;;0.52;0.52;;;16.70;99.90;;;;;;5033762;28;20121;-76
2023/10/07 06:47:23;;;;;;;1.20;0.93;;;16.70;99.90;;;;;;5033794;28;20036;-78
2023/10/07 06:49:52;;;;;;;5.35;1.63;;;16.70;99.90;;;;;;5033720;28;20042;-77
2023/10/07 06:52:19;;;;;;;2.05;1.88;;;16.60;99.90;;;;;;5033051;28;20040;-77
2023/10/07 06:54:47;;;;;;;1.63;0.95;;;16.50;99.90;;;;;;5033091;28;20217;-76
2023/10/07 06:57:13;;;;;;;0.75;0.75;;;16.60;99.90;;;;;;5033670;28;20049;-77
2023/10/07 06:59:45;;;;;;;0.90;0.90;;;16.80;99.90;;;;;;5033530;28;20497;-78
2023/10/07 07:02:17;;;;;;;;;;;16.60;99.90;;;;;;5034018;28;20080;-76
2023/10/07 07:04:43;;;;;;;1.77;1.15;;;16.50;99.90;;;;;;5033095;28;20281;-77
2023/10/07 07:07:16;;;;;;;5.75;2.97;;;16.40;99.90;;;;;;5033184;28;20037;-77
2023/10/07 07:09:57;;;;;;;8.32;2.83;;;16.40;99.90;;;;;;5033211;28;20067;-76
2023/10/07 07:12:26;;;;;;;3.38;2.40;;;16.40;99.90;;;;;;5033222;28;20033;-77
2023/10/07 07:14:53;;;;;;;1.67;1.15;;;16.40;99.90;;;;;;5033255;28;20411;-77
2023/10/07 07:17:29;;;;;;;1.20;1.13;;;16.50;99.90;;;;;;5032922;28;20041;-76
2023/10/07 07:22:44;;;;;;;3.92;2.03;;;16.50;99.90;;;;;;5033020;28;20025;-77
2023/10/07 07:25:17;;;;;;;1.85;1.40;;;16.50;99.90;;;;;;5033112;28;20036;-76
2023/10/07 07:27:48;;;;;;;1.58;0.82;;;16.50;99.90;;;;;;5033162;28;20021;-77
2023/10/07 07:30:30;;;;;;;3.00;1.05;;;16.70;99.90;;;;;;5033008;28;20029;-76
2023/10/07 07:32:59;;;;;;;;;;;16.80;99.90;;;;;;5015724;28;20044;-76
2023/10/07 07:35:39;;;;;;;4.63;2.45;;;16.90;99.90;;;;;;5033049;28;19905;-76
2023/10/07 07:38:21;;;;;;;1.92;0.73;;;16.80;99.90;;;;;;5007727;28;20022;-76
2023/10/07 07:40:49;;;;;;;4.75;2.03;;;16.80;99.90;;;;;;5032636;28;20473;-76
2023/10/07 07:43:17;;;;;;;1.80;0.98;;;16.70;99.90;;;;;;5032937;28;20053;-76
2023/10/07 07:45:46;;;;;;;0.75;0.75;;;16.70;99.90;;;;;;5031295;28;20033;-76
2023/10/07 07:48:12;;;;;;;0.63;0.63;;;16.80;99.90;;;;;;5032934;28;20095;-76
2023/10/07 07:50:41;;;;;;;1.95;1.67;;;16.90;99.90;;;;;;5032698;28;20061;-76
2023/10/07 07:53:07;;;;;;;0.00;0.00;;;16.90;99.90;;;;;;5031013;28;20501;-77
2023/10/07 07:55:45;;;;;;;1.33;0.45;;;17.20;99.90;;;;;;5032778;28;20018;-76
2023/10/07 07:58:11;;;;;;;13.18;2.22;;;17.30;99.90;;;;;;5032725;28;20025;-76
2023/10/07 08:00:58;;;;;;;0.45;0.45;;;17.30;99.90;;;;;;5032867;28;20021;-76
2023/10/07 08:03:27;;;;;;;0.00;0.00;;;17.40;99.90;;;;;;5032754;28;20029;-76
2023/10/07 08:05:54;;;;;;;1.38;1.27;;;17.50;99.90;;;;;;5035221;28;20017;-76
2023/10/07 08:08:24;;;;;;;3.53;1.35;;;17.60;99.90;;;;;;5036498;28;20434;-76
2023/10/07 08:10:57;;;;;;;7.40;2.38;;;17.60;99.90;;;;;;5036772;28;20046;-75
2023/10/07 08:13:27;;;;;;;2.50;1.45;;;17.40;99.90;;;;;;5036387;28;20038;-76
2023/10/07 08:15:54;;;;;;;1.73;1.30;;;17.60;99.90;;;;;;5035540;28;20025;-76
2023/10/07 08:18:28;;;;;;;0.73;0.57;;;17.50;99.90;;;;;;5036322;28;20088;-76
2023/10/07 08:21:06;;;;;;;2.40;1.45;;;17.60;99.90;;;;;;5035195;28;20076;-77
2023/10/07 08:23:44;;;;;;;1.90;0.82;;;17.60;99.90;;;;;;5036566;28;20079;-77
2023/10/07 08:26:12;;;;;;;2.30;1.20;;;17.70;99.90;;;;;;5036412;28;20036;-76
2023/10/07 08:28:43;;;;;;;4.22;0.68;;;17.70;99.90;;;;;;5036383;28;20064;-77
2023/10/07 08:31:20;;;;;;;1.27;1.02;;;17.90;99.90;;;;;;5029967;28;20121;-77
2023/10/07 08:33:53;;;;;;;9.05;2.28;;;18.10;99.90;;;;;;5030084;28;20091;-77
2023/10/07 08:36:27;;;;;;;1.52;1.05;;;17.90;99.90;;;;;;5035802;28;20026;-77
2023/10/07 08:38:56;;;;;;;3.03;1.30;;;17.90;99.90;;;;;;5035965;28;20041;-77
2023/10/07 08:41:26;;;;;;;5.65;2.45;;;18.00;99.90;;;;;;5036047;28;20026;-78
2023/10/07 08:44:04;;;;;;;12.75;2.95;;;18.00;99.90;;;;;;5028540;28;20501;-76
2023/10/07 08:46:39;;;;;;;10.60;2.53;;;18.00;99.90;;;;;;5021070;28;20401;-75
2023/10/07 08:49:13;;;;;;;1.02;1.02;;;18.20;99.90;;;;;;5035898;28;20060;-76
2023/10/07 08:51:43;;;;;;;0.95;0.77;;;18.30;99.90;;;;;;5035529;28;20041;-77
2023/10/07 08:54:26;;;;;;;7.53;2.72;;;18.40;99.90;;;;;;5035400;28;20025;-77
2023/10/07 08:56:57;;;;;;;1.17;0.88;;;18.20;99.90;;;;;;5035829;28;20037;-76
2023/10/07 08:59:32;;;;;;;8.27;2.33;;;18.30;99.90;;;;;;5035347;28;20128;-77
2023/10/07 09:02:12;;;;;;;0.60;0.50;;;18.20;99.90;;;;;;5034656;28;20049;-76
2023/10/07 09:04:40;;;;;;;7.53;0.65;;;18.20;99.90;;;;;;5035228;28;20432;-77
2023/10/07 09:07:11;;;;;;;2.90;1.10;;;18.50;99.90;;;;;;5035401;28;20022;-77
2023/10/07 09:09:38;;;;;;;10.15;2.22;;;18.50;99.90;;;;;;5017960;28;20033;-77
2023/10/07 09:12:28;;;;;;;0.10;0.10;;;18.70;99.90;;;;;;5035368;28;20033;-77
2023/10/07 09:14:57;;;;;;;1.80;1.00;;;19.00;99.90;;;;;;5035204;28;20022;-78
2023/10/07 09:17:26;;;;;;;2.42;1.23;;;19.00;99.90;;;;;;5035010;28;20021;-78
2023/10/07 09:19:58;;;;;;;1.95;1.75;;;19.10;99.90;;;;;;5034958;28;20032;-77
2023/10/07 09:22:33;;;;;;;0.82;0.82;;;19.10;99.90;;;;;;5035227;28;20037;-77
2023/10/07 09:25:16;;;;;;;0.35;0.25;;;19.20;99.90;;;;;;5034981;28;20025;-76
2023/10/07 09:27:58;;;;;;;14.18;2.08;;;19.20;99.90;;;;;;5035306;28;20033;-77
2023/10/07 09:30:45;;;;;;;1.43;0.73;;;19.10;99.90;;;;;;5034921;28;20029;-77
2023/10/07 09:33:21;;;;;;;1.20;0.70;;;19.20;99.90;;;;;;5034958;28;20639;-77
2023/10/07 09:36:22;;;;;;;6.75;2.33;;;19.30;99.90;;;;;;5034922;28;20030;-77
2023/10/07 09:38:43;;;;;;;11.05;1.50;;;19.40;99.90;;;;;;5034973;28;20116;-78
2023/10/07 09:41:12;;;;;;;0.13;0.13;;;19.20;99.90;;;;;;5034884;28;20116;-77
2023/10/07 09:43:47;;;;;;;2.97;1.38;;;19.50;99.90;;;;;;5034830;28;20053;-77
2023/10/07 09:46:24;;;;;;;6.93;3.05;;;19.60;99.90;;;;;;5033431;28;20086;-77
2023/10/07 09:49:00;;;;;;;1.00;0.73;;;19.40;99.90;;;;;;5034754;28;20034;-76
2023/10/07 09:51:34;;;;;;;1.17;0.50;;;19.40;99.90;;;;;;5034489;28;20478;-77
2023/10/07 09:54:16;;;;;;;8.32;0.80;;;19.80;99.90;;;;;;5034704;28;20074;-76
2023/10/07 09:57:14;;;;;;;1.23;0.43;;;19.90;99.90;;;;;;5034625;28;20083;-78
2023/10/07 10:03:04;;;;;;;1.20;1.08;;;20.30;99.90;;;;;;4985379;28;20038;-78
2023/10/07 10:05:49;;;;;;;0.55;0.30;;;20.10;99.90;;;;;;5033043;28;20106;-77
2023/10/07 10:08:29;;;;;;;0.90;0.60;;;20.20;99.90;;;;;;5016755;28;20029;-77
2023/10/07 10:10:58;;;;;;;0.38;0.38;;;20.70;99.90;;;;;;5034283;28;20482;-77
2023/10/07 10:13:35;;;;;;;1.65;1.17;;;20.60;99.90;;;;;;5016539;28;20110;-77
2023/10/07 10:16:01;;;;;;;0.45;0.43;;;20.60;99.90;;;;;;5033217;28;20535;-77
2023/10/07 10:18:40;;;;;;;0.60;0.50;;;20.90;99.90;;;;;;5034033;28;20116;-77
2023/10/07 10:21:09;;;;;;;2.95;1.10;;;21.10;99.90;;;;;;5034162;28;20018;-76
2023/10/07 10:23:38;;;;;;;1.25;1.25;;;20.40;99.90;;;;;;5034164;28;20060;-77
2023/10/07 10:26:14;;;;;;;11.75;1.90;;;20.80;99.90;;;;;;5034125;28;20032;-77
2023/10/07 10:29:07;;;;;;;0.85;0.43;;;20.80;99.90;;;;;;5031989;28;20430;-77
2023/10/07 10:31:40;;;;;;;2.60;1.77;;;21.00;99.90;;;;;;5033531;28;20393;-78
2023/10/07 10:34:08;;;;;;;0.75;0.57;;;21.30;99.90;;;;;;5033638;28;20021;-77
2023/10/07 10:36:43;;;;;;;0.00;0.00;;;21.70;99.90;;;;;;5033991;28;20037;-77
2023/10/07 10:39:26;;;;;;;1.17;1.17;;;21.50;99.90;;;;;;5033753;28;20053;-77
2023/10/07 10:41:55;;;;;;;1.02;0.50;;;21.40;99.90;;;;;;5033800;28;20037;-77
2023/10/07 10:44:21;;;;;;;0.17;0.17;;;21.60;99.90;;;;;;5033830;28;20029;-77
2023/10/07 10:46:49;;;;;;;1.25;1.15;;;21.70;99.90;;;;;;5033097;28;20072;-77
2023/10/07 10:49:17;;;;;;;0.77;0.57;;;22.20;99.90;;;;;;5033773;28;20482;-77
2023/10/07 10:51:46;;;;;;;2.70;1.25;;;22.20;99.90;;;;;;5032548;28;20367;-77
2023/10/07 10:54:16;;;;;;;1.27;0.77;;;22.40;99.90;;;;;;5033750;28;20435;-77
2023/10/07 10:56:58;;;;;;;2.83;1.13;;;22.40;99.90;;;;;;5033375;28;20036;-77
2023/10/07 10:59:47;;;;;;;2.05;0.75;;;22.20;99.90;;;;;;5033563;28;20026;-78
2023/10/07 11:02:17;;;;;;;2.33;1.23;;;22.20;99.90;;;;;;5020657;28;20083;-77
2023/10/07 11:04:54;;;;;;;0.28;0.20;;;22.20;99.90;;;;;;5020502;28;20030;-77
2023/10/07 11:07:22;;;;;;;4.20;1.63;;;22.90;99.90;;;;;;5032824;28;20105;-78
2023/10/07 11:09:51;;;;;;;0.68;0.68;;;22.70;99.90;;;;;;5033515;28;20100;-77
2023/10/07 11:12:18;;;;;;;0.60;0.55;;;22.70;99.90;;;;;;5033178;28;20489;-77
2023/10/07 11:14:47;;;;;;;5.32;1.77;;;23.10;99.90;;;;;;5032922;28;20025;-77
2023/10/07 11:17:15;;;;;;;2.50;0.65;;;22.80;99.90;;;;;;5032004;28;20037;-77
2023/10/07 11:19:48;;;;;;;0.65;0.57;;;22.70;99.90;;;;;;5032025;28;20061;-77
2023/10/07 11:22:18;;;;;;;2.30;0.73;;;23.00;99.90;;;;;;5033136;28;20029;-77
2023/10/07 11:24:46;;;;;;;0.25;0.25;;;23.30;99.90;;;;;;5033284;28;20033;-77
2023/10/07 11:27:13;;;;;;;0.47;0.47;;;24.30;99.90;;;;;;5031616;28;20397;-77
2023/10/07 11:29:40;;;;;;;0.20;0.20;;;24.90;99.90;;;;;;5032741;28;20112;-77
2023/10/07 11:32:07;;;;;;;0.52;0.52;;;24.00;99.90;;;;;;5032762;28;20045;-77
2023/10/07 11:34:38;;;;;;;0.20;0.10;;;24.80;99.90;;;;;;5032686;28;20045;-77
2023/10/07 11:37:13;;;;;;;2.33;1.08;;;24.80;99.90;;;;;;5032836;28;20386;-77
2023/10/07 11:39:47;;;;;;;1.05;0.88;;;24.40;99.90;;;;;;5032586;28;20037;-77
2023/10/07 11:42:18;;;;;;;2.72;0.57;;;24.10;99.90;;;;;;5032549;28;20069;-77
2023/10/07 11:44:50;;;;;;;0.68;0.57;;;23.70;99.90;;;;;;5031306;28;20029;-78
2023/10/07 11:47:16;;;;;;;1.13;0.43;;;24.40;99.90;;;;;;5031520;28;20481;-77
2023/10/07 11:49:46;;;;;;;11.13;2.63;;;24.70;99.90;;;;;;5031387;28;20497;-77
2023/10/07 11:52:12;;;;;;;16.15;2.00;;;24.60;99.90;;;;;;5032543;28;20045;-78
2023/10/07 11:54:39;;;;;;;11.52;1.17;;;24.20;99.90;;;;;;5032425;28;20025;-77
2023/10/07 11:57:06;;;;;;;1.13;0.88;;;24.40;99.90;;;;;;5032398;28;20485;-77
2023/10/07 11:59:35;;;;;;;0.20;0.20;;;24.90;99.90;;;;;;5032226;28;20029;-77
2023/10/07 12:02:10;;;;;;;0.28;0.28;;;25.00;99.90;;;;;;5032623;28;20047;-77
2023/10/07 12:04:39;;;;;;;5.22;0.60;;;25.10;99.90;;;;;;5032241;28;20033;-77
2023/10/07 12:07:14;;;;;;;2.65;1.45;;;24.80;99.90;;;;;;5028385;28;20022;-77
2023/10/07 12:09:46;;;;;;;9.32;1.63;;;24.40;99.90;;;;;;5024128;28;20040;-77
2023/10/07 12:12:13;;;;;;;2.42;0.55;;;24.20;99.90;;;;;;5032268;28;20044;-77
2023/10/07 12:14:39;;;;;;;1.70;1.20;;;24.30;99.90;;;;;;5032148;28;20386;-77
2023/10/07 12:17:07;;;;;;;1.50;1.13;;;24.20;99.90;;;;;;5031089;28;20048;-78
2023/10/07 12:19:37;;;;;;;0.63;0.60;;;23.90;99.90;;;;;;5031154;28;20026;-77
2023/10/07 12:22:06;;;;;;;2.10;1.25;;;24.60;99.90;;;;;;5032216;28;20079;-77
2023/10/07 12:24:37;;;;;;;6.95;1.35;;;24.30;99.90;;;;;;5031119;28;20390;-77
2023/10/07 12:27:06;;;;;;;4.33;1.33;;;24.60;99.90;;;;;;5031949;28;20044;-77
2023/10/07 12:29:32;;;;;;;3.00;1.30;;;24.00;99.90;;;;;;5030817;28;20383;-77
2023/10/07 12:31:58;;;;;;;3.42;0.82;;;24.20;99.90;;;;;;5032171;28;20521;-77
2023/10/07 12:34:24;;;;;;;2.33;1.40;;;24.60;99.90;;;;;;5032320;28;20017;-77
2023/10/07 12:36:52;;;;;;;2.78;1.42;;;24.50;99.90;;;;;;5031112;28;20563;-77
2023/10/07 12:39:21;;;;;;;1.85;1.08;;;24.10;99.90;;;;;;5032194;28;20029;-78
2023/10/07 12:41:48;;;;;;;7.15;1.60;;;24.60;99.90;;;;;;5032120;28;20474;-77
2023/10/07 12:44:14;;;;;;;1.52;0.80;;;24.50;99.90;;;;;;5032232;28;20029;-77
2023/10/07 12:46:41;;;;;;;2.53;1.40;;;25.20;99.90;;;;;;5032311;28;20032;-77
2023/10/07 12:49:11;;;;;;;1.27;1.00;;;25.10;99.90;;;;;;5032336;28;20063;-77
2023/10/07 12:51:45;;;;;;;2.92;2.28;;;26.20;99.90;;;;;;5034647;28;20033;-77
2023/10/07 12:54:11;;;;;;;1.95;0.52;;;25.90;99.90;;;;;;5035967;28;20024;-77
2023/10/07 12:56:38;;;;;;;14.27;2.03;;;25.80;99.90;;;;;;5035622;28;20034;-77
2023/10/07 12:59:17;;;;;;;6.95;1.80;;;25.90;99.90;;;;;;5035884;28;20025;-77
2023/10/07 13:01:56;;;;;;;0.20;0.20;;;26.10;99.90;;;;;;5036558;28;20045;-77
2023/10/07 13:04:25;;;;;;;2.20;1.00;;;26.70;99.90;;;;;;5035579;28;20025;-77
2023/10/07 13:07:02;;;;;;;0.10;0.10;;;26.30;99.90;;;;;;5035708;28;20489;-78
2023/10/07 13:09:30;;;;;;;1.63;0.95;;;26.60;99.80;;;;;;5035491;28;20029;-77
2023/10/07 13:11:58;;;;;;;1.80;0.55;;;26.10;99.90;;;;;;5033878;28;20044;-77
2023/10/07 13:14:26;;;;;;;0.80;0.65;;;26.00;99.80;;;;;;5035500;28;20463;-77
2023/10/07 13:16:59;;;;;;;5.53;1.40;;;25.90;99.90;;;;;;5028119;28;20393;-78
2023/10/07 13:19:30;;;;;;;0.05;0.05;;;26.00;99.80;;;;;;5026500;28;20024;-77
2023/10/07 13:21:59;;;;;;;0.30;0.30;;;26.10;99.90;;;;;;5035257;28;20203;-78
2023/10/07 13:24:26;;;;;;;3.00;1.70;;;26.30;99.90;;;;;;5035392;28;20501;-77
2023/10/07 13:26:52;;;;;;;11.57;1.15;;;25.70;99.90;;;;;;5033779;28;20021;-78
2023/10/07 13:29:18;;;;;;;1.35;0.20;;;25.10;99.90;;;;;;5035198;28;20056;-78
2023/10/07 13:31:44;;;;;;;1.25;0.43;;;25.20;99.90;;;;;;5035184;28;20083;-78
2023/10/07 13:34:10;;;;;;;1.25;1.23;;;25.50;99.90;;;;;;5033863;28;20370;-78
2023/10/07 13:36:42;;;;;;;2.67;1.17;;;25.40;99.90;;;;;;5035269;28;20028;-77
2023/10/07 13:39:17;;;;;;;0.10;0.10;;;25.50;99.90;;;;;;5034814;28;20354;-77
2023/10/07 13:41:44;;;;;;;0.05;0.05;;;25.70;99.90;;;;;;5034925;28;20032;-78
2023/10/07 13:44:12;;;;;;;2.67;1.80;;;25.80;99.90;;;;;;5035024;28;20030;-77
2023/10/07 13:46:39;;;;;;;1.65;0.77;;;25.40;99.90;;;;;;5034774;28;20478;-77
2023/10/07 13:49:08;;;;;;;0.15;0.08;;;26.10;99.90;;;;;;5034943;28;20029;-78
2023/10/07 13:51:45;;;;;;;0.50;0.50;;;27.00;99.70;;;;;;5034603;28;20045;-77
2023/10/07 13:56:56;;;;;;;1.08;0.85;;;28.10;97.20;;;;;;5034964;28;20033;-77
2023/10/07 13:59:22;;;;;;;1.05;0.95;;;26.80;99.60;;;;;;5034483;28;20095;-78
2023/10/07 14:01:52;;;;;;;1.25;1.15;;;27.60;97.80;;;;;;5034692;28;20037;-78
2023/10/07 14:04:19;;;;;;;4.40;0.90;;;28.30;95.70;;;;;;5034536;28;20374;-77
2023/10/07 14:06:47;;;;;;;13.43;0.77;;;27.50;95.90;;;;;;5033171;28;20465;-77
2023/10/07 14:09:16;;;;;;;4.18;0.85;;;27.30;96.50;;;;;;5022010;28;20382;-77